Date,TemperatureHighF,TemperatureAvgF,TemperatureLowF,DewpointHighF,DewpointAvgF,DewpointLowF,HumidityHigh,HumidityAvg,HumidityLow,PressureMaxIn,PressureMinIn,WindSpeedMaxMPH,WindSpeedAvgMPH,GustSpeedMaxMPH,PrecipitationSumIn
2013-1-3,32,28,23,23,21,18,80,75,67,30.28,30.19,6,3,11,0.00
2013-1-4,29,26,24,23,22,20,90,83,75,30.32,30.23,7,4,18,0.00
2013-1-5,35,29,24,26,23,21,88,79,66,30.43,30.21,5,2,12,0.01
2013-1-6,36,34,32,31,28,25,97,79,71,30.22,30.04,5,3,13,0.00
2013-1-7,38,29,26,31,25,22,97,86,57,30.49,30.23,4,1,13,0.00
2013-1-8,46,41,32,31,26,19,73,56,40,30.40,30.30,6,2,15,0.33
2013-1-9,49,44,38,43,37,26,98,78,51,30.49,30.25,17,3,17,0.21
2013-1-10,46,40,33,38,31,28,98,74,50,30.59,30.28,8,2,11,0.01
2013-1-11,58,50,43,54,45,29,97,82,55,30.28,29.98,10,5,15,0.14
2013-1-12,64,60,55,56,55,53,97,85,73,30.09,29.93,5,3,11,0.01
2013-1-13,65,63,56,56,53,51,98,72,63,29.96,29.83,9,4,18,0.23
2013-1-14,57,40,31,56,37,28,99,90,77,30.32,29.85,6,2,12,0.15
2013-1-15,33,30,27,32,28,24,98,91,87,30.36,30.07,4,1,9,0.00
2013-1-16,37,34,32,37,33,31,99,98,96,30.07,29.88,6,3,12,0.18
2013-1-17,32,31,28,31,28,27,96,91,83,30.20,30.05,4,1,11,0.00
2013-1-18,37,27,18,27,15,1,94,65,22,30.53,30.19,9,4,19,0.01
2013-1-19,51,44,37,21,16,1,44,32,20,30.34,29.91,10,6,26,0.00
2013-1-20,45,36,24,31,19,6,69,51,28,30.11,29.85,9,5,23,0.00
2013-1-21,28,22,11,19,14,0,90,69,53,30.09,29.91,7,3,22,0.00
2013-1-22,12,8,4,2,-1,-3,79,65,54,30.35,30.08,6,4,18,0.00
2013-1-23,15,10,4,11,2,-1,88,71,56,30.39,30.13,5,2,11,0.00
2013-1-24,20,14,10,12,8,0,92,78,53,30.59,30.11,5,1,10,0.00
2013-1-25,20,15,10,19,9,0,94,79,64,30.57,30.08,7,2,11,0.00
2013-1-26,24,21,18,23,19,15,96,92,80,30.49,30.16,4,2,10,0.00
2013-1-27,34,26,18,22,18,14,89,74,55,30.57,30.35,5,1,7,0.15
2013-1-28,50,44,32,50,41,22,100,89,60,30.36,30.07,9,5,22,0.63
2013-1-29,65,57,50,56,52,49,100,84,62,30.08,29.80,7,4,15,0.03
2013-1-30,71,58,45,56,52,43,96,81,57,29.79,29.22,10,5,20,1.24
2013-1-31,45,27,21,43,22,12,96,82,64,29.89,29.21,10,6,21,0.15
2013-2-1,22,13,9,20,9,3,94,82,72,30.40,29.84,6,4,15,0.00
2013-2-2,24,17,9,22,12,3,96,81,59,30.40,30.03,7,3,17,0.00
2013-2-3,25,22,16,24,20,13,96,93,85,30.09,29.85,6,2,12,0.00
2013-2-4,31,22,16,30,19,12,97,88,70,30.13,29.91,7,3,20,0.01
2013-2-5,33,31,29,33,30,28,99,97,85,29.96,29.85,6,2,15,0.04
2013-2-6,30,28,25,29,26,24,98,94,88,30.35,29.95,3,1,9,0.00
2013-2-7,40,32,24,32,27,23,94,84,72,30.33,29.99,9,5,11,0.25
2013-2-8,39,32,23,37,29,20,98,91,83,30.18,29.83,8,6,15,0.28
2013-2-9,32,25,21,21,19,17,95,80,60,30.42,30.18,6,2,14,0.02
2013-2-10,51,37,21,34,18,8,81,49,30,30.40,29.98,8,4,11,0.02
2013-2-11,59,49,38,48,36,23,94,66,28,29.99,29.69,10,6,23,0.03
2013-2-12,46,39,33,28,25,22,73,58,41,30.05,29.87,7,3,17,0.00
2013-2-13,43,36,29,31,26,21,98,70,47,29.93,29.63,4,1,7,0.00
2013-2-14,42,34,27,32,29,25,98,81,63,30.01,29.86,7,3,12,0.20
2013-2-15,40,33,28,33,30,27,97,86,68,30.05,29.95,4,1,10,0.01
2013-2-16,28,23,19,27,19,12,96,83,65,30.04,29.95,3,1,7,0.00
2013-2-17,20,16,12,17,11,6,92,80,65,30.33,29.95,6,4,16,0.00
2013-2-18,46,30,13,33,17,5,73,58,39,30.37,29.96,6,2,10,0.12
2013-2-19,46,36,23,37,29,19,96,77,45,29.96,29.67,9,5,21,0.17
2013-2-20,22,19,17,20,13,9,92,79,69,30.28,29.95,7,4,26,0.00
2013-2-21,24,19,16,17,14,11,91,80,74,30.39,30.24,5,2,9,0.00
2013-2-22,34,31,22,32,26,16,95,83,58,30.31,30.02,10,6,14,0.03
2013-2-23,42,36,33,39,34,31,92,91,89,30.02,29.94,9,3,9,0.00
2013-2-25,36,35,34,21,21,20,59,57,53,30.13,30.05,8,5,11,0.00
2013-2-26,38,35,32,35,26,20,92,70,57,30.07,29.57,12,8,18,0.56
2013-2-27,39,36,30,37,34,30,98,94,85,29.70,29.57,7,3,15,0.32
2013-2-28,31,30,29,30,29,27,99,97,93,29.83,29.65,5,3,12,0.00
2013-3-1,30,27,24,29,26,23,98,93,80,29.98,29.83,4,2,9,0.00
2013-3-2,26,24,22,23,21,20,96,92,83,29.99,29.92,4,1,7,0.00
2013-3-3,25,22,20,21,19,16,96,89,77,30.05,29.96,4,2,11,0.00
2013-3-4,35,26,19,19,16,14,87,69,49,30.18,30.05,5,2,10,0.14
2013-3-5,48,35,27,30,20,15,97,57,37,30.13,29.59,8,2,16,0.10
2013-3-6,34,31,29,32,30,28,98,96,90,30.14,29.59,8,2,12,0.10
2013-3-7,36,32,30,31,30,28,98,93,78,30.30,30.12,5,2,9,0.05
2013-3-8,32,30,27,29,26,24,97,86,78,30.44,30.28,5,2,10,0.01
2013-3-9,56,39,25,35,26,20,93,63,28,30.43,30.19,8,1,9,0.01
2013-3-10,68,54,43,35,28,22,48,38,26,30.19,29.97,8,4,10,0.00
2013-3-11,61,55,50,48,35,28,90,47,29,30.02,29.69,9,4,20,0.05
2013-3-12,51,37,34,49,35,27,98,91,77,30.02,29.72,6,2,16,0.31
2013-3-13,34,29,25,30,26,20,98,88,69,30.16,29.95,18,3,20,0.03
2013-3-14,36,28,21,21,19,16,92,71,47,30.27,30.16,7,4,19,0.01
2013-3-15,48,38,29,34,26,17,72,62,53,30.19,29.85,6,2,14,0.00
2013-3-16,55,44,34,49,41,33,98,90,70,29.93,29.59,5,2,11,0.08
2013-3-17,35,32,28,33,26,23,98,80,65,30.17,29.92,5,1,6,0.00
2013-3-18,40,34,30,38,31,25,96,90,72,30.14,29.75,11,6,14,0.38
2013-3-19,47,39,31,46,27,12,98,66,30,29.98,29.73,11,6,28,0.12
2013-3-20,40,32,26,21,16,14,62,52,39,30.00,29.80,8,4,18,0.00
2013-3-21,26,23,17,20,12,8,92,65,53,30.00,29.86,6,4,13,0.00
2013-3-22,38,28,21,20,17,15,81,66,46,30.06,29.98,5,2,11,0.00
2013-3-23,46,35,27,23,20,18,70,56,35,30.07,29.98,5,1,12,0.00
2013-3-24,38,32,29,30,23,19,95,71,50,29.99,29.46,10,4,14,0.00
2013-3-25,33,30,29,32,30,28,98,96,90,29.76,29.45,9,4,13,0.00
2013-3-26,38,32,29,33,30,29,99,92,72,30.12,29.76,5,2,9,0.01
2013-3-27,39,32,29,30,28,25,98,83,63,30.21,30.10,6,3,13,0.12
2013-3-28,39,34,29,29,27,25,94,75,63,30.30,30.17,4,2,10,0.04
2013-3-29,47,41,36,30,27,24,74,59,40,30.30,30.18,5,1,10,0.00
2013-3-30,53,43,33,27,23,15,67,47,27,30.25,30.03,4,1,9,0.00
2013-3-31,46,44,42,45,38,24,98,80,46,30.03,29.73,14,2,15,0.13
2013-4-1,45,40,32,43,31,14,97,74,34,30.03,29.74,6,4,18,0.00
2013-4-2,40,31,24,18,14,11,68,50,32,30.23,30.02,5,3,12,0.01
2013-4-3,41,32,25,20,14,9,69,50,30,30.42,30.22,7,2,16,0.00
2013-4-4,53,38,24,22,14,9,58,40,22,30.40,30.01,6,2,8,0.00
2013-4-5,55,45,35,34,28,21,85,53,34,30.14,29.93,6,2,13,0.00
2013-4-6,61,44,27,24,16,4,79,41,11,30.27,30.05,6,2,9,0.00
2013-4-7,69,60,53,49,38,24,67,44,32,30.05,29.89,9,5,18,0.00
2013-4-8,73,64,55,49,46,41,77,54,38,30.01,29.89,7,2,17,0.00
2013-4-9,78,69,60,55,52,49,72,56,42,30.06,29.91,6,2,14,0.00
2013-4-10,82,72,61,58,54,50,79,54,40,29.94,29.76,7,3,17,0.00
2013-4-11,79,68,58,58,54,52,85,63,40,29.83,29.53,8,3,13,0.00
2013-4-12,72,59,46,59,49,34,97,73,42,29.80,29.45,19,4,19,0.31
2013-4-13,58,47,37,36,32,29,77,60,34,30.00,29.79,19,3,19,0.00
2013-4-14,64,49,33,38,33,26,87,57,33,30.16,30.00,10,1,10,0.00
2013-4-15,64,58,55,49,45,38,78,62,46,30.09,29.99,15,3,15,0.01
2013-4-16,78,66,56,60,54,48,98,67,46,30.19,30.02,23,4,23,0.61
2013-4-17,67,60,56,60,57,55,100,92,78,30.18,30.05,10,1,10,0.00
2013-4-18,82,68,59,60,57,54,90,71,42,30.08,29.82,24,5,24,0.00
2013-4-19,71,57,42,61,49,33,97,77,59,29.82,29.46,24,5,24,0.29
2013-4-20,49,40,34,34,27,23,82,61,37,30.40,29.82,20,4,20,0.01
2013-4-21,54,41,31,26,23,20,74,51,28,30.58,30.39,12,2,12,0.00
2013-4-22,60,48,39,32,26,19,61,44,21,30.47,30.26,13,5,13,0.00
2013-4-23,69,54,38,42,34,30,80,51,25,30.26,29.97,14,3,14,0.00
2013-4-24,73,58,38,58,46,34,93,68,47,30.12,29.73,24,4,24,0.20
2013-4-25,56,44,34,35,31,26,93,64,35,30.35,30.12,13,2,13,0.00
2013-4-26,59,48,39,37,32,27,82,56,32,30.46,30.35,11,1,11,0.00
2013-4-27,72,59,45,41,33,27,57,39,23,30.39,30.15,10,2,10,0.00
2013-4-28,59,55,52,52,47,41,94,74,53,30.16,29.91,11,3,11,0.14
2013-4-29,63,56,52,55,51,47,96,83,71,30.01,29.92,9,2,9,0.07
2013-4-30,71,59,52,54,51,49,94,77,54,30.15,29.99,12,4,12,0.00
2013-5-1,74,61,52,52,46,34,90,62,29,30.27,30.14,13,4,13,0.00
2013-5-2,76,62,49,44,38,34,64,43,24,30.30,30.16,14,3,14,0.00
2013-5-3,71,60,50,45,41,32,73,50,29,30.19,30.13,13,4,13,0.00
2013-5-4,68,56,45,43,37,27,68,49,31,30.15,30.06,16,2,16,0.00
2013-5-5,70,57,48,41,33,22,68,43,17,30.11,29.99,14,3,14,0.00
2013-5-6,67,55,47,53,47,38,89,75,60,30.02,29.96,14,2,14,0.00
2013-5-7,60,57,53,56,54,51,96,88,81,29.97,29.89,13,1,13,0.20
2013-5-8,68,58,50,54,50,47,98,79,50,29.95,29.84,9,1,9,0.27
2013-5-9,74,61,53,58,54,50,98,79,45,30.00,29.89,12,1,12,0.05
2013-5-10,75,64,59,61,56,53,97,76,57,29.99,29.80,22,1,22,0.18
2013-5-11,60,57,50,59,55,47,99,94,82,29.83,29.75,22,2,22,0.51
2013-5-12,51,46,39,48,35,26,97,67,42,30.07,29.82,27,2,27,0.04
2013-5-13,50,42,36,35,30,24,81,65,40,30.19,30.05,18,1,18,0.00
2013-5-14,60,49,35,42,34,25,80,57,39,30.21,29.93,12,1,12,0.00
2013-5-15,84,72,57,60,55,40,76,57,43,29.94,29.72,20,3,20,0.02
2013-5-16,73,64,58,62,58,53,96,84,52,29.96,29.75,20,1,20,1.08
2013-5-17,80,68,58,63,56,42,99,72,28,30.08,29.96,9,0,9,0.00
2013-5-18,79,66,58,63,58,51,97,77,50,30.07,29.99,8,1,8,0.21
2013-5-19,76,65,58,68,61,57,97,88,68,30.06,29.94,11,1,11,0.06
2013-5-20,82,71,62,67,64,59,91,77,57,30.02,29.90,13,0,13,0.00
2013-5-21,83,74,66,69,66,63,94,77,58,29.94,29.81,11,0,11,0.00
2013-5-22,83,70,62,67,61,57,97,75,55,29.87,29.76,16,1,16,0.42
2013-5-23,75,63,57,63,60,57,98,89,56,29.85,29.75,17,1,17,0.31
2013-5-24,57,43,38,57,40,32,99,88,66,30.29,29.81,15,1,15,0.15
2013-5-25,59,45,31,40,35,30,96,71,46,30.36,30.23,13,1,13,0.00
2013-5-26,65,51,38,42,36,32,80,60,36,30.31,30.21,9,0,9,0.00
2013-5-27,62,54,47,52,43,37,80,67,58,30.27,30.10,6,0,6,0.01
2013-5-28,77,70,58,64,58,50,85,66,56,30.10,29.98,17,2,17,0.02
2013-5-29,82,74,69,65,60,56,72,61,49,30.08,30.00,20,2,20,0.00
2013-5-30,86,77,69,66,63,60,76,63,47,30.16,30.03,7,0,7,0.00
2013-5-31,85,76,69,66,62,57,75,62,46,30.08,29.95,12,0,12,0.00
2013-6-1,84,75,65,68,65,61,96,72,54,29.99,29.80,13,1,13,0.01
2013-6-2,74,70,63,66,63,61,96,80,65,29.84,29.76,15,1,15,0.10
2013-6-3,66,61,53,62,59,52,99,93,78,30.01,29.83,8,0,8,0.01
2013-6-4,69,55,45,52,45,40,95,72,41,30.15,30.01,8,0,8,0.01
2013-6-5,80,67,54,66,58,47,92,73,52,30.09,29.89,6,0,6,0.14
2013-6-6,68,64,61,64,62,60,99,93,79,29.93,29.72,7,0,7,0.34
2013-6-7,64,62,58,64,61,58,100,100,98,29.82,29.69,6,0,6,0.22
2013-6-8,70,60,53,61,57,53,100,89,70,30.10,29.82,7,0,7,0.00
2013-6-9,80,70,60,67,62,57,91,77,56,30.13,29.97,5,0,5,0.00
2013-6-10,75,67,63,69,64,61,97,91,76,30.00,29.76,14,1,14,0.08
2013-6-11,73,65,61,67,62,60,100,93,79,29.89,29.78,12,1,12,0.04
2013-6-12,68,68,67,64,64,63,88,86,84,29.88,29.85,9,1,9,0.00
2013-6-13,72,63,58,69,62,57,99,96,85,29.74,29.54,21,1,21,1.41
2013-6-14,69,60,53,62,56,52,100,90,65,30.03,29.74,9,0,9,0.13
2013-6-15,59,58,56,56,56,55,97,92,89,30.04,30.01,0,0,0,0.00
2013-6-16,70,67,64,66,63,61,94,88,82,29.95,29.89,16,1,16,0.05
2013-6-17,79,70,65,68,65,62,98,85,64,29.95,29.86,5,0,8,0.00
2013-6-18,74,68,65,66,64,60,98,86,68,29.88,29.79,8,0,8,0.07
2013-6-19,76,66,59,64,59,50,100,80,52,30.10,29.87,9,0,9,0.01
2013-6-20,80,69,58,63,58,49,94,71,48,30.18,30.09,6,0,6,0.00
2013-6-21,84,72,62,66,61,58,96,71,43,30.20,30.11,5,0,5,0.00
2013-6-22,85,75,67,69,65,62,86,72,52,30.17,30.03,9,0,9,0.00
2013-6-23,86,76,69,71,66,61,79,69,50,30.11,30.00,7,0,7,0.00
2013-6-24,83,75,63,72,67,61,99,76,60,30.14,29.97,16,0,16,0.62
2013-6-25,84,75,67,71,68,61,91,79,60,30.02,29.87,14,1,14,0.01
2013-6-26,76,71,64,71,68,64,99,90,79,29.90,29.78,13,0,13,1.14
2013-6-27,71,67,66,68,66,65,100,96,84,29.78,29.62,12,1,12,0.11
2013-6-28,75,67,63,70,66,61,100,95,78,29.62,29.49,13,1,13,0.13
2013-6-29,75,67,61,66,62,60,99,87,68,29.66,29.52,12,0,12,0.02
2013-6-30,84,72,63,68,64,61,94,77,49,29.77,29.64,7,0,7,0.00
2013-7-1,82,70,64,72,67,64,98,89,65,29.89,29.75,5,0,5,0.01
2013-7-2,81,72,65,70,68,65,100,85,65,30.03,29.88,10,0,10,0.00
2013-7-3,83,74,68,72,67,64,90,78,62,30.13,30.02,9,0,9,0.00
2013-7-4,86,75,68,73,68,64,99,80,57,30.17,30.05,10,0,10,0.04
2013-7-5,83,75,68,72,68,65,98,80,63,30.13,30.06,10,0,10,0.00
2013-7-6,88,78,68,73,69,66,97,76,55,30.13,29.97,7,0,7,0.00
2013-7-7,78,70,66,70,67,66,98,91,74,30.06,29.97,10,0,10,0.41
2013-7-8,79,71,64,70,66,59,99,85,69,30.11,30.03,8,0,8,0.00
2013-7-9,80,71,67,74,69,66,99,92,79,30.07,29.95,14,1,14,1.17
2013-7-10,83,72,64,75,69,64,100,90,70,30.02,29.81,15,1,15,1.05
2013-7-11,74,66,63,68,64,59,100,93,79,29.95,29.82,8,0,8,0.33
2013-7-12,66,63,61,62,60,58,94,90,82,29.94,29.92,2,0,2,0.00
2013-7-18,90,83,77,76,74,71,88,75,58,30.04,29.98,5,0,5,0.01
2013-7-19,85,76,68,78,72,66,96,88,74,29.99,29.83,14,0,14,0.01
2013-7-20,76,70,66,74,68,65,99,93,81,29.91,29.80,13,1,13,0.01
2013-7-21,77,69,67,71,67,65,95,92,81,29.92,29.87,4,0,4,0.01
2013-7-22,78,71,66,75,70,66,99,95,85,29.90,29.73,12,0,12,0.00
2013-7-23,80,70,63,70,67,62,100,91,69,29.76,29.67,9,0,9,0.02
2013-7-24,66,65,63,64,64,62,100,97,93,29.75,29.70,7,0,7,0.00
2013-7-25,74,64,53,60,55,52,97,76,54,30.06,29.93,1,0,5,0.00
2013-7-26,79,67,55,62,56,52,92,71,51,30.07,29.97,1,0,4,0.11
2013-7-27,72,67,64,67,63,56,97,86,69,29.97,29.82,4,0,9,0.20
2013-7-28,74,66,59,63,60,53,99,82,57,30.01,29.81,3,0,7,0.46
2013-7-29,71,63,56,58,54,50,82,73,58,30.17,30.01,3,0,7,0.00
2013-7-30,77,66,58,63,58,55,91,77,56,30.20,30.11,1,0,3,0.00
2013-7-31,73,66,61,66,62,58,98,88,74,30.12,29.93,1,0,2,0.03
2013-8-1,76,68,64,69,65,61,100,90,68,29.93,29.83,1,0,6,0.09
2013-8-2,76,69,62,62,61,58,94,77,58,29.96,29.87,3,1,9,0.01
2013-8-3,69,65,63,65,63,61,99,93,77,29.96,29.91,3,0,10,0.24
2013-8-4,72,64,58,63,59,54,100,86,58,30.05,29.95,1,0,6,0.01
2013-8-5,74,63,54,58,54,51,95,75,50,30.10,29.98,1,0,4,0.00
2013-8-6,81,69,58,64,58,53,88,70,46,30.00,29.93,1,0,3,0.00
2013-8-7,84,71,65,72,66,63,99,86,62,29.95,29.86,4,0,12,0.75
2013-8-8,79,71,66,74,69,66,99,92,82,29.95,29.88,3,0,7,0.55
2013-8-9,78,71,69,73,70,69,100,98,84,29.97,29.85,2,1,10,0.84
2013-8-10,79,70,60,69,64,57,100,83,51,30.05,29.97,1,0,3,0.00
2013-8-11,82,72,63,68,64,58,95,78,46,30.07,29.97,1,0,3,0.00
2013-8-12,80,72,66,69,66,64,99,84,61,30.01,29.85,1,0,5,0.00
2013-8-13,75,67,59,70,64,53,100,90,72,29.91,29.76,2,0,8,0.87
2013-8-14,65,57,50,55,52,49,98,84,67,30.13,29.91,1,0,7,0.00
2013-8-15,73,60,50,58,52,49,97,78,48,30.18,30.07,2,0,5,0.01
2013-8-16,77,65,56,61,56,51,85,74,55,30.13,30.06,1,0,4,0.00
2013-8-17,73,65,57,60,56,53,90,74,56,30.19,30.12,1,0,7,0.00
2013-8-18,71,65,60,66,62,58,98,91,78,30.17,30.10,1,0,5,0.12
2013-8-19,77,68,64,69,65,62,100,93,72,30.11,30.03,1,0,5,0.10
2013-8-20,80,69,61,66,62,60,98,79,54,30.17,30.07,1,0,4,0.00
2013-8-21,82,69,64,72,65,60,98,86,69,30.14,30.03,2,0,5,0.37
2013-8-22,78,69,64,71,66,60,98,91,70,30.08,29.96,2,0,9,0.15
2013-8-23,76,68,63,68,63,57,100,88,59,30.10,29.94,1,0,7,0.76
2013-8-24,80,68,58,64,59,56,94,74,47,30.26,30.10,1,0,4,0.00
2013-8-25,79,68,59,63,59,55,88,72,49,30.34,30.21,2,0,5,0.00
2013-8-26,79,71,64,67,62,57,80,74,62,30.24,30.01,3,1,8,0.00
2013-8-27,74,71,68,72,68,64,100,93,77,30.02,29.92,3,0,8,0.54
2013-8-28,74,72,68,74,71,67,100,98,92,29.92,29.77,3,1,10,0.48
2013-8-29,82,72,66,72,69,66,100,91,69,29.97,29.85,1,0,4,0.00
2013-8-30,84,74,66,71,68,64,98,82,63,29.97,29.80,1,0,4,0.00
2013-8-31,81,74,71,71,68,66,90,83,68,29.82,29.75,3,1,11,0.00
2013-9-1,78,72,69,70,67,65,97,86,74,29.81,29.73,2,0,7,0.02
2013-9-2,79,71,63,72,68,62,99,91,75,29.81,29.71,5,1,10,0.26
2013-9-3,73,64,56,64,60,54,100,88,60,30.00,29.77,1,0,8,0.00
2013-9-4,74,62,53,60,56,52,99,82,58,30.11,30.00,1,0,4,0.01
2013-9-5,74,64,57,62,57,48,93,79,57,30.15,30.06,2,0,9,0.00
2013-9-6,72,60,51,57,51,46,85,72,54,30.21,30.10,1,0,4,0.00
2013-9-7,75,64,54,59,54,50,87,70,44,30.10,29.95,2,0,5,0.00
2013-9-8,76,70,64,68,62,55,91,77,65,29.99,29.90,2,0,6,0.01
2013-9-9,82,71,62,70,65,59,93,82,65,30.07,29.98,2,0,6,0.00
2013-9-10,83,76,72,74,70,66,86,80,71,30.11,30.02,3,1,9,0.00
2013-9-11,76,75,74,71,70,70,88,86,84,30.11,30.08,1,0,5,0.00
2013-9-12,76,70,65,73,68,64,100,94,79,29.92,29.75,2,1,9,0.07
2013-9-13,66,57,48,65,55,46,100,92,62,29.99,29.74,2,0,9,0.05
2013-9-14,62,52,46,50,47,45,99,84,59,30.17,29.99,2,0,5,0.00
2013-9-15,70,59,48,57,51,44,91,77,60,30.18,30.06,3,0,8,0.00
2013-9-16,65,59,54,59,55,51,99,89,72,30.25,30.02,3,0,10,0.19
2013-9-17,70,57,48,55,50,44,98,79,44,30.35,30.22,2,0,7,0.01
2013-9-18,68,58,48,58,50,42,86,75,56,30.23,30.10,2,1,3,0.00
2013-9-19,75,64,59,63,60,55,99,86,62,30.13,30.00,1,0,5,0.01
2013-9-20,76,68,61,70,64,58,96,89,79,30.02,29.81,1,0,5,0.00
2013-9-21,69,63,54,66,61,54,100,93,81,29.82,29.61,3,0,8,1.25
2013-9-22,58,54,48,56,52,46,100,93,72,29.99,29.75,1,0,5,0.00
2013-9-23,55,48,44,48,45,42,99,89,71,30.12,29.99,1,0,5,0.01
2013-9-24,69,53,43,57,48,41,92,84,64,30.10,29.95,1,0,4,0.00
2013-9-25,74,60,53,59,52,44,88,73,56,29.96,29.84,2,0,4,0.00
2013-9-26,74,61,53,57,51,47,82,70,47,30.04,29.89,1,0,5,0.00
2013-9-27,74,61,52,57,51,47,83,71,45,30.15,30.03,1,0,4,0.00
2013-9-28,69,59,54,57,53,49,91,79,60,30.22,30.11,2,1,4,0.00
2013-9-29,72,60,52,59,52,48,87,77,54,30.12,29.99,2,0,5,0.00
2013-9-30,67,60,54,61,56,51,96,88,77,30.03,29.97,1,0,3,0.01
2013-10-1,74,65,60,63,58,55,89,81,63,30.08,29.99,2,0,6,0.00
2013-10-2,76,67,61,65,61,58,92,81,65,30.09,30.02,2,0,8,0.00
2013-10-3,77,69,64,67,63,59,97,81,67,30.07,29.99,1,0,6,0.02
2013-10-4,78,70,64,67,65,63,98,85,66,30.09,30.00,2,0,5,0.00
2013-10-5,80,72,67,68,65,63,88,79,64,30.06,29.94,2,0,7,0.00
2013-10-6,82,73,69,66,62,57,84,68,50,29.94,29.73,3,0,8,0.00
2013-10-7,69,56,47,60,50,43,98,82,62,30.11,29.64,3,1,12,0.43
2013-10-8,66,52,44,50,45,42,95,78,50,30.29,30.11,2,0,8,0.00
2013-10-9,66,53,47,46,43,38,86,70,37,30.28,30.18,2,0,8,0.00
2013-10-10,64,54,50,54,48,41,94,79,69,30.18,30.05,2,1,10,0.00
2013-10-11,55,53,50,55,52,50,100,98,93,30.05,30.00,2,0,4,0.10
2013-10-12,70,60,53,63,58,53,100,93,75,30.13,30.02,2,0,6,0.01
2013-10-13,71,60,56,60,57,54,97,87,67,30.21,30.10,1,0,8,0.01
2013-10-14,62,58,55,59,56,54,99,95,91,30.25,30.18,2,0,4,0.04
2013-10-15,72,61,54,60,55,53,98,84,61,30.19,29.97,1,0,5,0.01
2013-10-16,67,62,59,60,53,42,97,72,50,29.97,29.85,3,1,9,0.00
2013-10-17,62,56,47,62,56,46,100,99,94,29.89,29.65,3,0,10,0.41
2013-10-18,59,49,43,47,43,40,99,81,52,30.04,29.89,3,1,8,0.00
2013-10-19,54,47,41,47,42,39,96,84,71,29.99,29.77,4,1,12,0.08
2013-10-20,55,45,38,40,38,36,97,77,51,30.08,29.95,4,1,10,0.00
2013-10-21,63,54,44,43,37,32,68,54,38,30.07,29.87,3,1,8,0.00
2013-10-22,58,47,38,46,39,32,98,75,50,29.93,29.82,4,1,12,0.34
2013-10-23,40,37,34,37,35,32,98,93,75,29.97,29.74,2,0,6,0.30
2013-10-24,39,34,32,36,33,30,99,95,77,30.19,29.96,3,1,11,0.02
2013-10-25,41,34,30,35,31,29,99,90,70,30.40,30.19,3,1,8,0.07
2013-10-26,48,40,32,31,28,26,86,65,45,30.32,29.95,5,3,13,0.01
2013-10-27,52,43,36,35,33,31,85,68,49,30.12,30.00,2,0,7,0.00
2013-10-28,59,48,41,41,36,33,82,64,44,30.27,30.11,1,0,5,0.00
2013-10-29,58,49,41,40,36,34,76,62,44,30.35,30.24,2,0,4,0.00
2013-10-30,58,55,50,57,49,36,97,83,58,30.24,30.09,2,0,8,0.00
2013-10-31,67,62,57,58,56,52,96,81,60,30.09,29.47,7,2,14,0.10
2013-11-1,67,59,54,57,49,44,90,68,55,29.68,29.38,6,2,16,0.26
2013-11-3,48,41,35,36,31,27,90,68,49,30.43,30.24,2,1,6,0.01
2013-11-4,46,37,30,28,26,25,82,66,47,30.52,30.42,5,3,7,0.00
2013-11-5,54,44,36,37,30,25,67,57,43,30.53,30.34,5,2,5,0.00
2013-11-6,71,61,48,50,48,37,79,63,46,30.35,29.91,6,3,11,0.00
2013-11-7,63,45,36,53,40,26,99,82,62,30.12,29.83,6,2,9,0.78
2013-11-8,43,36,32,30,27,25,84,71,52,30.32,30.10,4,2,10,0.00
2013-11-9,55,44,32,28,24,20,75,48,27,30.31,30.04,7,3,11,0.00
2013-11-10,49,42,35,35,30,25,75,61,40,30.29,30.01,8,3,18,0.00
2013-11-11,50,41,34,37,28,22,84,61,33,30.30,30.05,5,2,12,0.02
2013-11-12,42,28,23,39,26,21,97,90,75,30.51,30.05,5,2,8,0.10
2013-11-13,32,26,20,24,21,18,93,83,69,30.59,30.45,6,2,10,0.04
2013-11-14,47,38,28,21,19,17,76,50,30,30.46,30.23,6,5,12,0.14
2013-11-15,53,48,43,41,24,16,87,40,28,30.25,30.14,5,3,17,0.02
2013-11-16,62,52,43,51,46,40,91,80,65,30.22,30.04,5,2,7,0.00
2013-11-17,64,59,51,59,52,47,92,80,67,30.05,29.55,35,5,35,0.45
2013-11-18,53,47,38,49,35,26,89,65,45,30.02,29.68,25,5,25,0.01
2013-11-19,38,33,30,27,25,22,77,73,64,30.40,30.02,12,2,12,0.00
2013-11-20,46,35,28,23,18,10,79,53,24,30.46,30.36,15,5,15,0.00
2013-11-21,56,45,34,44,33,19,73,64,53,30.44,30.25,10,3,10,0.00
2013-11-22,58,50,36,52,48,36,99,93,69,30.25,30.04,15,2,15,0.54
2013-11-23,36,30,18,36,25,11,99,83,61,30.35,30.14,19,3,19,0.00
2013-11-24,21,16,14,16,8,6,92,71,56,30.58,30.35,19,3,19,0.00
2013-11-25,39,27,14,17,8,-2,71,48,18,30.58,30.29,24,2,24,0.00
2013-11-26,39,34,32,38,33,16,99,94,42,30.29,29.69,12,1,12,1.22
2013-11-27,33,26,20,32,24,14,99,94,78,30.17,29.71,16,3,16,0.01
2013-11-28,27,23,18,21,18,14,92,82,72,30.48,30.17,11,2,11,0.01
2013-11-29,35,28,25,24,22,20,85,75,59,30.66,30.48,11,1,11,0.08
2013-11-30,43,32,24,28,23,19,81,71,54,30.62,30.27,16,4,16,0.01
2013-12-1,44,42,40,34,29,24,71,59,50,30.27,29.97,17,3,17,0.03
2013-12-2,49,44,40,38,35,31,77,71,64,29.98,29.81,9,0,9,0.00
2013-12-3,56,46,40,41,38,36,85,73,56,29.90,29.81,8,1,8,0.00
2013-12-4,60,53,45,48,44,38,81,74,66,29.98,29.87,9,2,9,0.00
2013-12-5,66,59,43,58,54,43,99,85,71,29.95,29.84,21,3,21,1.13
2013-12-6,44,33,28,43,33,28,99,99,98,30.28,29.93,13,1,13,0.86
2013-12-7,28,24,20,28,24,19,98,96,93,30.58,30.23,8,0,8,0.00
2013-12-8,32,25,19,32,23,17,98,94,92,30.58,30.13,12,3,12,0.00
2013-12-9,45,35,29,45,34,27,100,96,88,30.16,30.03,19,3,19,0.14
2013-12-10,29,25,22,27,22,16,97,87,74,30.30,30.00,25,2,25,0.00
2013-12-11,30,24,18,21,17,14,87,73,56,30.42,30.29,17,3,17,0.03
2013-12-12,24,20,17,19,15,11,88,80,75,30.42,30.37,11,4,11,0.00
2013-12-13,34,33,32,17,16,15,54,50,45,30.31,30.27,11,1,11,0.01
2013-12-14,43,35,31,42,29,14,97,81,43,30.28,29.69,13,4,17,0.38
2013-12-15,42,32,24,41,31,22,99,97,91,29.90,29.64,19,4,19,0.06
2013-12-16,31,25,22,30,24,20,96,96,93,30.18,30.07,4,1,8,0.00
2013-12-17,37,32,27,34,30,24,98,92,84,30.07,29.95,18,2,18,0.12
2013-12-18,34,27,24,24,22,19,93,82,56,30.24,30.05,23,3,23,0.00
2013-12-19,54,47,34,37,26,8,56,43,27,30.18,30.04,30,5,30,0.08
2013-12-20,59,54,52,52,38,24,86,56,32,30.05,29.90,23,5,23,0.04
2013-12-21,69,62,58,59,55,52,93,78,62,29.91,29.66,23,4,23,0.20
2013-12-22,72,59,55,59,54,51,95,83,61,29.92,29.58,28,5,28,0.30
2013-12-23,55,38,27,52,37,22,99,95,79,30.27,29.90,14,2,14,0.60
2013-12-24,27,21,14,23,16,8,95,80,58,30.54,30.23,16,3,16,0.00
2013-12-25,32,22,11,20,12,8,89,67,37,30.54,30.27,10,0,10,0.01
2013-12-26,36,31,26,27,21,14,94,69,47,30.37,30.20,20,3,20,0.03
2013-12-27,41,35,28,22,20,17,69,56,41,30.42,30.32,22,3,22,0.00
2013-12-28,48,43,37,29,24,21,57,47,38,30.33,30.08,21,4,21,0.00
2013-12-29,48,41,37,42,36,21,99,87,35,30.08,29.61,15,2,15,0.98
2013-12-30,37,27,21,36,26,20,99,96,90,30.19,29.86,13,2,13,0.04
2013-12-31,26,24,22,24,20,17,95,85,74,30.37,30.12,27,3,27,0.00
2014-1-1,43,34,26,25,22,19,77,62,41,30.38,30.05,15,2,15,0.02
2014-1-2,39,31,11,31,24,9,97,77,54,30.05,29.62,13,1,13,0.00